Aérodrome :
LOGIN :

S'inscrire | Disclaimer

   EN    FR    IT 

 










Légende :    VFR   VFR Marginal   IFR   IFR Intensif   IFR Très Intensif
Visi : 
Plafond : 
>= 8 km
>= 3000ft
5 à 8 km
1000 à 3000 ft
1500m à 5 km
500 à 1000 ft
800 à 1500m
200 à 500 ft
< 800m
< 200 ft
Symboles :   Orages  Brouillard  Fortes neiges  Fortes précipitations  Vent > 20 kt
SIGMETs :   Divers  Orages  Givrage  Turbulence  Onde Orograph.  Cendres Volcan.







- Altitude de l'aérodrome : 485 ft
- Code IATA : QSA


LELL - Sabadell

DERNIER METAR :
  • 200500Z AUTO VRB01KT 9999 NCD 13/12 Q1020

METARs EXPIRÉS :
  • 200430Z AUTO 28004KT 9999 NCD 13/12 Q1020
  • 200400Z AUTO 30002KT 9999 NCD 13/12 Q1020
  • 200330Z AUTO 00000KT 9999 NCD 15/12 Q1021
  • 200300Z AUTO 01001KT 9999 NCD 15/12 Q1021
  • 200230Z AUTO 36001KT 9999 NCD 15/13 Q1021

TAF TAF LELL
Valide du 20 à 03h jusqu'au 21 à 03h UTC


200200Z 2003/2103 VRB03KT 9999 SCT020 TX22/2012Z TN13/2006Z
TEMPO 2003/2015 BKN014
BECMG 2010/2012 14008KT
BECMG 2018/2020 VRB03KT
Pas de NOTAMs connus pour ce terrain.



MET'MAP, la Météo Aéronautique d'un coup d'oeil ! - Copyright ORBIFLY Décembre 2007 - Disclaimer

ORBIFLY MET'MAP TEAM :

Programmation & Développement : Alexandra Zaïnal
Conception & Développement : Baudouin d'Aumeries
Co-Programmation & Développement : Marc-Olivier Méhu
Soutien technique & logistique : Manuel Goepfert

Contact : metmap@orbifly.com




SOURCES & CREDITS :

   NOAA